Portada
Imágenes satélite Pronóstico 15 díasClimaPredicción Marítima Ciclones Rayo AeropuertosFAQ Noticias Acerca
El tiempo : Europa África América del Norte América del Sur Asia Australia-Oceanía Otros
Idiomas Contacto

Madrid, España

Barajas

latitud: 40-27N, longitud: 003-33W, altitud: 609 m


METAR: LEMD 202230Z 35002KT CAVOK 15/11 Q1024 NOSIG
TAF: LEMD 201700Z 2018/2124 VRB04KT CAVOK TX29/2115Z TN09/2107Z

Hora: 00:49 (22:49 UTC)

Observación

El informe se hizo hace 19 minutos, a las 22:30 UTC  
Viento 02 kt del norte
Temperatura 15°C
Humedad 77%
Presión 1024 hPa
Visibilidad 10 km o más
sin nubes por debajo de 1500 m y sin presencia de cumulonimbus.

Cambiar las unidades

Pronóstico

El informe se hizo hace 05 horas y 49 minutos, a las 17:00 UTC  
Pronóstico válido del 20 a las 18 UTC al 21 a las 24 UTC
Viento 04 kt con dirección variable
Visibilidad 10 km o más
sin nubes por debajo de 1500 m y sin presencia de cumulonimbus.
La información que se ofrece en estas páginas está sujeta a una cláusula de exención de responsabilidad
El tiempo : Europa África América del Norte América del Sur Asia Australia-Oceanía Otros
Imágenes satélite Pronóstico 15 díasClimaPredicción Marítima Ciclones Rayo AeropuertosFAQ Idiomas Contacto Noticias Acerca